SELJ weather

Hacienda La Julia Airport
Julia, Los Rios Province, Ecuador

Public forecast

Using degrees Celsius for public forecast. Weather courtesy of forecast.io.

Closest aviation weather report (METAR) to Hacienda La Julia Airport

Closest report is José Joaquín de Olmedo International Airport, 33.7 nm (62.4 km) SW. Retrieved 2020/02/20 10:00 UTC (34 minutes ago):

SEGU 201000Z 32003KT 9999 FEW008 BKN023 BKN100 27/23 Q1008 NOSIG RMK A2977

Closest aviation forecast (TAF) to Hacienda La Julia Airport

Closest forecast is José Joaquín de Olmedo International Airport, 33.7 nm (62.4 km) SW. Retrieved 2020/02/20 06:57 UTC (4 hours ago):

TAF SEGU 200430Z 2006/2106 23005KT 9999 BKN020 BKN100 BECMG 2012/2013 03006KT SCT026 BKN100 BECMG 2019/2020 35006KT BKN026 BKN100 FM202300 23005KT 6000 RA BKN020 BKN100 TX32/2020Z TN25/2010Z